Seven Seas Mariner — C6VV8 — position and weather

sailwx.info

Track history (hours):
 
Tides and Currents Weather Stations Pressure Air Temp Water Temp Dewpoint Dewpoint Depression Visibility Wind Speed Wind Dir Waves Ship Positions

Seven Seas Mariner

Last reported at 2019-Sep-17 09:00 UTC. Time now 2019-Sep-17 09:05 UTC.
Position N 53°31' W 130°50'.

Length 216 m; draft 7.2 m.

Type: Passenger vessel. MMSI: 311622000.

Date/timePositionNaut miles runAvg speedWind from/ knotsBaromVisibWave heightAir tempDewpointWater temp
2019-Sep-17 09:00N 53°31' W 130°50'815.0
2019-Sep-17 08:30N 53°38' W 130°53'815.2
2019-Sep-17 08:00N 53°46' W 130°56'917.3
2019-Sep-17 07:30N 53°54' W 130°59'918.4
2019-Sep-17 07:00N 54°03' W 131°01'918.9
2019-Sep-17 06:31N 54°13' W 131°02'918.4
2019-Sep-17 06:00N 54°22' W 131°05'1018.9
2019-Sep-17 05:29N 54°30' W 131°15'816.8
2019-Sep-17 04:59N 54°38' W 131°16'1019.7
2019-Sep-17 04:30N 54°46' W 131°07'1919.5
2019-Sep-17 03:31N 55°05' W 131°08'120.0
2019-Sep-17 03:30N 55°05' W 131°08'  
2019-Sep-14 12:47N 58°10' W 135°20'413.6
2019-Sep-14 12:29N 58°12' W 135°27'713.7
2019-Sep-14 12:00N 58°16' W 135°38'713.0
2019-Sep-14 11:30N 58°19' W 135°49'613.2
2019-Sep-14 11:00N 58°20' W 136°01'712.4
2019-Sep-14 10:28N 58°18' W 136°13'  
2019-Sep-09 08:57N 58°00' W 136°45'2416.1
2019-Sep-09 07:29N 58°18' W 136°16'919.2
2019-Sep-09 07:00N 58°20' W 135°58'1019.5
2019-Sep-09 06:30N 58°17' W 135°41'1019.0
2019-Sep-09 05:59N 58°13' W 135°23'  
Track history (hours):
 
Tides and Currents Weather Stations Pressure Air Temp Water Temp Dewpoint Dewpoint Depression Visibility Wind Speed Wind Dir Waves Ship Positions

Seven Seas Mariner

Last reported at 2019-Sep-17 09:00 UTC. Time now 2019-Sep-17 09:05 UTC.
Position N 53°31' W 130°50'.

Length 216 m; draft 7.2 m.

Type: Passenger vessel. MMSI: 311622000.

Date/timePositionNaut miles runAvg speedWind from/ knotsBaromVisibWave heightAir tempDewpointWater temp
2019-Sep-17 09:00N 53°31' W 130°50'815.0
2019-Sep-17 08:30N 53°38' W 130°53'815.2
2019-Sep-17 08:00N 53°46' W 130°56'917.3
2019-Sep-17 07:30N 53°54' W 130°59'918.4
2019-Sep-17 07:00N 54°03' W 131°01'918.9
2019-Sep-17 06:31N 54°13' W 131°02'918.4
2019-Sep-17 06:00N 54°22' W 131°05'1018.9
2019-Sep-17 05:29N 54°30' W 131°15'816.8
2019-Sep-17 04:59N 54°38' W 131°16'1019.7
2019-Sep-17 04:30N 54°46' W 131°07'1919.5
2019-Sep-17 03:31N 55°05' W 131°08'120.0
2019-Sep-17 03:30N 55°05' W 131°08'  
2019-Sep-14 12:47N 58°10' W 135°20'413.6
2019-Sep-14 12:29N 58°12' W 135°27'713.7
2019-Sep-14 12:00N 58°16' W 135°38'713.0
2019-Sep-14 11:30N 58°19' W 135°49'613.2
2019-Sep-14 11:00N 58°20' W 136°01'712.4
2019-Sep-14 10:28N 58°18' W 136°13'  
2019-Sep-09 08:57N 58°00' W 136°45'2416.1
2019-Sep-09 07:29N 58°18' W 136°16'919.2
2019-Sep-09 07:00N 58°20' W 135°58'1019.5
2019-Sep-09 06:30N 58°17' W 135°41'1019.0
2019-Sep-09 05:59N 58°13' W 135°23'  

Dump ship's entire track history